Time;durP1;ratioP1;P1;durP2;ratioP2;P2;SDS_P1;SDS_P2;PMS_P1;PMS_P2;Temp;Humidity;BMP_temperature;BMP_pressure;BME280_temperature;BME280_humidity;BME280_pressure;Samples;Min_cycle;Max_cycle;Signal;HPM_P1;HPM_P2
2022/04/21 00:00:21;;;;;;;19.90;14.13;;;;;;;4.09;100.00;98601.31;1694127;82;20867;-68
2022/04/21 00:02:51;;;;;;;21.10;15.58;;;;;;;4.09;100.00;98597.23;1686292;82;21915;-66
2022/04/21 00:05:27;;;;;;;20.72;14.93;;;;;;;4.10;100.00;98594.77;1721816;81;21160;-67
2022/04/21 00:07:59;;;;;;;20.37;14.87;;;;;;;4.12;100.00;98593.92;1718130;83;20976;-67
2022/04/21 00:10:35;;;;;;;21.68;15.43;;;;;;;4.13;100.00;98596.34;1694230;83;21514;-67
2022/04/21 00:13:07;;;;;;;21.10;14.63;;;;;;;4.15;100.00;98596.86;1692082;83;20938;-67
2022/04/21 00:15:34;;;;;;;21.33;15.70;;;;;;;4.12;100.00;98590.66;1714763;81;21038;-67
2022/04/21 00:18:06;;;;;;;22.95;16.10;;;;;;;4.13;100.00;98591.47;1722345;81;21566;-67
2022/04/21 00:20:44;;;;;;;24.65;17.02;;;;;;;4.11;100.00;98587.69;1726996;82;21006;-67
2022/04/21 00:23:30;;;;;;;24.72;17.20;;;;;;;4.11;100.00;98595.03;1716864;81;20959;-67
2022/04/21 00:26:01;;;;;;;28.12;19.15;;;;;;;4.11;100.00;98590.41;1724046;82;21262;-67
2022/04/21 00:28:37;;;;;;;27.80;19.32;;;;;;;4.12;100.00;98587.94;1718478;82;28751;-67
2022/04/21 00:31:08;;;;;;;28.02;20.57;;;;;;;4.12;100.00;98592.56;1718203;81;20950;-67
2022/04/21 00:33:48;;;;;;;26.48;18.67;;;;;;;4.11;100.00;98589.59;1716086;81;20959;-67
2022/04/21 00:36:17;;;;;;;27.17;18.45;;;;;;;4.11;100.00;98586.33;1715629;82;21018;-67
2022/04/21 00:38:48;;;;;;;32.95;20.80;;;;;;;4.10;100.00;98595.58;1720769;81;21176;-67
2022/04/21 00:41:22;;;;;;;28.67;18.70;;;;;;;4.09;100.00;98588.53;1729593;82;21620;-67
2022/04/21 00:43:56;;;;;;;25.77;17.82;;;;;;;4.08;100.00;98584.20;1730509;81;21006;-66
2022/04/21 00:46:24;;;;;;;25.92;17.60;;;;;;;4.08;100.00;98584.20;1714043;81;20955;-67
2022/04/21 00:48:55;;;;;;;26.12;17.32;;;;;;;4.09;100.00;98584.46;1720719;81;21062;-67
2022/04/21 00:51:31;;;;;;;22.45;16.52;;;;;;;4.09;100.00;98580.38;1718393;81;21209;-67
2022/04/21 00:54:07;;;;;;;25.05;18.07;;;;;;;4.10;100.00;98582.00;1686993;83;20974;-66
2022/04/21 00:56:35;;;;;;;24.45;17.37;;;;;;;4.10;100.00;98579.28;1707361;81;21422;-67
2022/04/21 00:59:10;;;;;;;24.63;16.82;;;;;;;4.12;100.00;98574.91;1696847;83;20911;-67
2022/04/21 01:04:34;;;;;;;24.65;17.12;;;;;;;4.14;100.00;98575.42;1736566;81;20944;-67
2022/04/21 01:07:04;;;;;;;26.57;17.87;;;;;;;4.15;100.00;98574.31;1702780;84;21003;-67
2022/04/21 01:09:39;;;;;;;24.15;17.67;;;;;;;4.17;100.00;98572.11;1693034;83;20963;-64
2022/04/21 01:12:09;;;;;;;24.60;17.65;;;;;;;4.19;100.00;98573.43;1678326;84;21447;-66
2022/04/21 01:14:38;;;;;;;27.95;18.42;;;;;;;4.17;100.00;98560.70;1702521;83;20928;-66
2022/04/21 01:17:11;;;;;;;27.52;17.95;;;;;;;4.21;100.00;98566.34;1665857;83;47831;-66
2022/04/21 01:19:38;;;;;;;;;;;;;;;4.23;100.00;98568.20;1695706;82;21032;-66
2022/04/21 01:22:15;;;;;;;24.45;17.17;;;;;;;4.21;100.00;98562.27;1710431;82;20464;-66
2022/04/21 01:24:47;;;;;;;23.45;16.60;;;;;;;4.21;100.00;98562.27;1697623;83;21029;-66
2022/04/21 01:27:17;;;;;;;28.12;19.23;;;;;;;4.20;100.00;98559.30;1707326;83;20990;-66
2022/04/21 01:29:46;;;;;;;27.85;19.48;;;;;;;4.17;100.00;98558.53;1688789;82;21166;-66
2022/04/21 01:32:18;;;;;;;30.68;19.73;;;;;;;4.16;100.00;98560.44;1700562;83;20914;-66
2022/04/21 01:34:53;;;;;;;32.17;20.55;;;;;;;4.16;100.00;98555.56;1682450;83;21002;-66
2022/04/21 01:42:59;;;;;;;31.07;21.10;;;;;;;4.17;100.00;98544.95;1692800;82;22056;-76
2022/04/21 01:45:32;;;;;;;28.25;19.25;;;;;;;4.17;100.00;98544.95;1719902;82;21583;-75
2022/04/21 01:48:06;;;;;;;33.02;21.23;;;;;;;4.19;100.00;98551.70;1713473;82;21433;-75
2022/04/21 01:50:38;;;;;;;28.35;20.10;;;;;;;4.19;100.00;98548.98;1718437;82;21001;-76
2022/04/21 01:53:14;;;;;;;30.75;21.37;;;;;;;4.21;100.00;98547.33;1704077;83;21017;-75
2022/04/21 01:55:43;;;;;;;28.80;19.02;;;;;;;4.22;100.00;98540.78;1711964;83;20962;-75
2022/04/21 01:58:16;;;;;;;33.92;22.87;;;;;;;4.23;100.00;98539.68;1719206;82;21563;-75
2022/04/21 02:00:47;;;;;;;33.88;21.35;;;;;;;4.23;100.00;98541.04;1688222;83;21024;-75
2022/04/21 02:03:16;;;;;;;31.07;21.77;;;;;;;4.24;100.00;98537.22;1712826;82;20871;-73
2022/04/21 02:05:46;;;;;;;27.73;20.45;;;;;;;4.27;100.00;98541.50;1715546;83;20915;-76
2022/04/21 02:08:15;;;;;;;26.48;19.02;;;;;;;4.29;100.00;98538.48;1721617;82;21347;-75
2022/04/21 02:10:44;;;;;;;28.00;18.98;;;;;;;4.31;100.00;98536.28;1722498;82;20957;-74
2022/04/21 02:13:18;;;;;;;27.13;19.15;;;;;;;4.31;100.00;98529.48;1727178;82;21017;-75
2022/04/21 02:15:51;;;;;;;27.15;19.05;;;;;;;4.31;100.00;98533.01;1721701;83;21016;-74
2022/04/21 02:18:22;;;;;;;28.20;18.77;;;;;;;4.33;100.00;98531.91;1701366;83;21606;-78
2022/04/21 02:20:50;;;;;;;29.50;18.12;;;;;;;4.33;100.00;98532.71;1721710;82;21152;-76
2022/04/21 02:23:24;;;;;;;27.90;19.70;;;;;;;4.34;100.00;98526.72;1712019;83;20941;-75
2022/04/21 02:26:01;;;;;;;27.25;19.15;;;;;;;4.34;100.00;98535.69;1717788;82;21628;-74
2022/04/21 02:28:31;;;;;;;31.45;21.05;;;;;;;4.34;100.00;98532.16;1692923;83;20903;-75
2022/04/21 02:31:00;;;;;;;29.50;19.23;;;;;;;4.34;100.00;98525.37;1716962;82;21017;-76
2022/04/21 02:33:35;;;;;;;27.25;20.05;;;;;;;4.35;100.00;98521.55;1719394;82;21103;-75
2022/04/21 02:36:08;;;;;;;30.50;20.92;;;;;;;4.36;100.00;98516.36;1720450;82;20890;-75
2022/04/21 02:38:42;;;;;;;32.80;21.65;;;;;;;4.36;100.00;98517.72;1717913;82;21445;-76
2022/04/21 02:41:11;;;;;;;34.95;22.67;;;;;;;4.37;100.00;98522.86;1719715;82;21555;-75
2022/04/21 02:43:41;;;;;;;33.45;21.97;;;;;;;4.36;100.00;98515.81;1719726;82;20941;-73
2022/04/21 02:46:12;;;;;;;30.30;21.42;;;;;;;4.37;100.00;98520.14;1718710;82;21815;-77
2022/04/21 02:48:49;;;;;;;29.75;20.70;;;;;;;4.37;100.00;98520.14;1717428;82;21154;-67
2022/04/21 02:51:18;;;;;;;31.93;21.85;;;;;;;4.40;100.00;98516.02;1733439;81;21025;-74
2022/04/21 02:59:30;;;;;;;31.55;23.10;;;;;;;4.41;100.00;98519.80;1727327;81;21434;-77
2022/04/21 03:02:06;;;;;;;36.70;22.00;;;;;;;4.42;100.00;98521.41;1733494;82;20958;-77
2022/04/21 03:04:35;;;;;;;31.40;22.60;;;;;;;4.43;100.00;98523.02;1736149;81;20900;-75
2022/04/21 03:07:05;;;;;;;35.58;21.87;;;;;;;4.46;100.00;98521.61;1736897;82;20967;-77
2022/04/21 03:09:34;;;;;;;31.90;21.82;;;;;;;4.46;100.00;98521.61;1731730;81;21054;-74
2022/04/21 03:12:06;;;;;;;29.45;19.27;;;;;;;4.47;100.00;98515.07;1731965;82;21279;-73
2022/04/21 03:14:41;;;;;;;31.57;22.07;;;;;;;4.48;100.00;98520.20;1707146;82;20994;-73
2022/04/21 03:17:14;;;;;;;33.00;22.10;;;;;;;4.57;100.00;98516.23;1701318;81;21490;-75
2022/04/21 03:19:49;;;;;;;32.00;22.02;;;;;;;4.60;100.00;98511.00;1694458;83;21548;-75
2022/04/21 03:25:07;;;;;;;32.40;22.00;;;;;;;4.60;100.00;98519.16;1735796;82;21164;-77
2022/04/21 03:27:42;;;;;;;31.62;21.45;;;;;;;4.58;100.00;98520.02;1736869;81;21002;-74
2022/04/21 03:30:12;;;;;;;28.57;20.60;;;;;;;4.59;100.00;98523.54;1738476;81;20899;-75
2022/04/21 03:32:49;;;;;;;28.47;20.45;;;;;;;4.58;100.00;98526.81;1738549;81;20891;-74
2022/04/21 03:35:21;;;;;;;30.68;20.60;;;;;;;4.58;100.00;98526.81;1733640;82;21062;-75
2022/04/21 03:37:51;;;;;;;30.12;20.35;;;;;;;4.58;100.00;98525.45;1738156;82;21260;-75
2022/04/21 03:40:21;;;;;;;29.45;19.98;;;;;;;4.58;100.00;98524.64;1727350;82;21469;-74
2022/04/21 03:42:49;;;;;;;29.25;20.08;;;;;;;4.58;100.00;98524.64;1737458;81;20903;-75
2022/04/21 03:45:23;;;;;;;26.52;19.75;;;;;;;4.57;100.00;98523.84;1732990;82;20947;-75
2022/04/21 03:47:58;;;;;;;29.00;20.48;;;;;;;4.57;100.00;98523.84;1737405;82;20946;-74
2022/04/21 03:50:29;;;;;;;29.25;20.55;;;;;;;4.60;100.00;98525.95;1700258;83;21540;-73
2022/04/21 03:52:56;;;;;;;32.28;21.07;;;;;;;4.59;100.00;98526.26;1733699;82;20946;-75
2022/04/21 03:55:26;;;;;;;34.90;22.17;;;;;;;4.64;100.00;98528.84;1729606;82;20963;-75
2022/04/21 03:57:57;;;;;;;32.00;22.75;;;;;;;4.63;100.00;98529.41;1742366;82;20999;-75
2022/04/21 04:00:28;;;;;;;29.97;20.67;;;;;;;4.63;100.00;98521.80;1738839;82;20971;-75
2022/04/21 04:02:59;;;;;;;29.18;20.88;;;;;;;4.66;100.00;98525.27;1735757;82;21149;-73
2022/04/21 04:05:32;;;;;;;29.80;20.17;;;;;;;4.69;100.00;98523.87;1731406;82;21426;-74
2022/04/21 04:10:55;;;;;;;28.87;21.68;;;;;;;4.71;100.00;98514.86;1731656;80;21227;-77
2022/04/21 04:13:27;;;;;;;27.95;19.70;;;;;;;4.74;100.00;98516.41;1734276;82;21450;-73
2022/04/21 04:15:56;;;;;;;29.50;19.90;;;;;;;4.76;100.00;98511.48;1728866;81;20914;-78
2022/04/21 04:18:23;;;;;;;27.07;19.73;;;;;;;4.79;100.00;98515.51;1742724;81;21516;-77
2022/04/21 04:20:50;;;;;;;28.25;20.48;;;;;;;4.81;100.00;98519.54;1737996;81;20987;-76
2022/04/21 04:23:20;;;;;;;30.10;19.67;;;;;;;4.85;100.00;98518.38;1734638;82;21407;-74
2022/04/21 04:25:47;;;;;;;30.05;19.73;;;;;;;4.87;100.00;98517.52;1734570;81;21023;-76
2022/04/21 04:28:14;;;;;;;29.67;20.65;;;;;;;4.88;100.00;98522.66;1705833;83;21446;-77
2022/04/21 04:30:43;;;;;;;36.13;20.50;;;;;;;4.90;100.00;98523.16;1731771;82;20878;-75
2022/04/21 04:33:09;;;;;;;29.23;19.98;;;;;;;4.93;100.00;98516.31;1726800;81;21084;-74
2022/04/21 04:35:37;;;;;;;29.40;20.25;;;;;;;5.00;100.00;98513.98;1730600;81;20983;-76
2022/04/21 04:38:05;;;;;;;30.65;21.10;;;;;;;5.00;100.00;98513.98;1733634;82;21113;-76
2022/04/21 04:40:32;;;;;;;30.45;20.08;;;;;;;5.03;100.00;98513.38;1699204;82;21321;-75
2022/04/21 04:42:58;;;;;;;31.10;20.17;;;;;;;5.10;100.00;98511.05;1738646;82;21443;-75
2022/04/21 04:48:10;;;;;;;26.87;18.90;;;;;;;5.25;100.00;98516.14;1723871;81;21352;-76
2022/04/21 04:50:37;;;;;;;25.52;17.67;;;;;;;5.27;100.00;98522.08;1717665;82;21078;-76
2022/04/21 04:53:06;;;;;;;30.00;20.40;;;;;;;5.27;100.00;98522.08;1733752;81;21039;-76
2022/04/21 04:55:35;;;;;;;27.77;18.60;;;;;;;5.25;100.00;98520.22;1724324;81;20992;-76
2022/04/21 04:58:04;;;;;;;34.20;23.32;;;;;;;5.23;100.00;98516.20;1728105;82;20985;-76
2022/04/21 05:00:32;;;;;;;25.92;18.23;;;;;;;5.22;100.00;98522.19;1711239;82;21067;-76
2022/04/21 05:02:59;;;;;;;30.92;19.37;;;;;;;5.24;100.00;98522.69;1719259;83;20927;-74
2022/04/21 05:05:28;;;;;;;25.05;17.37;;;;;;;5.22;100.00;98523.55;1718474;82;20879;-75
2022/04/21 05:07:55;;;;;;;25.90;17.85;;;;;;;5.20;100.00;98524.41;1733545;82;20927;-74
2022/04/21 05:10:23;;;;;;;25.62;16.90;;;;;;;5.24;100.00;98524.05;1728985;82;20971;-74
2022/04/21 05:12:51;;;;;;;26.65;19.10;;;;;;;5.24;100.00;98524.05;1733176;82;21025;-73
2022/04/21 05:15:20;;;;;;;29.70;22.17;;;;;;;5.24;100.00;98528.13;1737434;82;21521;-75
2022/04/21 05:17:49;;;;;;;28.98;20.50;;;;;;;5.22;100.00;98531.71;1729803;82;21315;-72
2022/04/21 05:20:18;;;;;;;30.70;19.67;;;;;;;5.20;100.00;98535.30;1730274;81;20928;-71
2022/04/21 05:22:47;;;;;;;29.10;19.12;;;;;;;5.18;100.00;98533.47;1733524;82;21589;-71
2022/04/21 05:25:15;;;;;;;26.23;19.32;;;;;;;5.19;100.00;98530.19;1739886;82;20951;-71
2022/04/21 05:27:45;;;;;;;27.02;18.27;;;;;;;5.18;100.00;98536.19;1728619;82;20927;-70
2022/04/21 05:33:01;;;;;;;27.45;18.27;;;;;;;5.18;100.00;98528.02;1741997;82;21026;-72
2022/04/21 05:35:29;;;;;;;23.32;16.90;;;;;;;5.20;100.00;98533.16;1734209;82;21582;-72
2022/04/21 05:37:58;;;;;;;22.10;16.05;;;;;;;5.20;100.00;98529.85;1716004;82;21015;-72
2022/04/21 05:40:26;;;;;;;26.65;18.55;;;;;;;5.18;100.00;98536.19;1747151;82;21049;-72
2022/04/21 05:42:56;;;;;;;27.90;19.05;;;;;;;5.18;100.00;98536.19;1716030;82;21266;-72
2022/04/21 05:45:23;;;;;;;23.35;16.52;;;;;;;5.20;100.00;98533.94;1721721;83;21018;-71
2022/04/21 05:47:53;;;;;;;24.12;17.87;;;;;;;5.22;100.00;98533.08;1729923;81;21545;-72
2022/04/21 05:50:22;;;;;;;22.70;15.15;;;;;;;5.26;100.00;98535.98;1722740;82;20903;-73
2022/04/21 05:52:50;;;;;;;26.35;18.65;;;;;;;5.26;100.00;98535.98;1724917;82;21423;-69
2022/04/21 05:55:18;;;;;;;26.82;18.70;;;;;;;5.26;100.00;98534.08;1732076;82;21219;-70
2022/04/21 05:57:45;;;;;;;27.40;19.48;;;;;;;5.28;100.00;98527.77;1721748;82;20974;-69
2022/04/21 06:00:15;;;;;;;32.67;23.62;;;;;;;5.31;100.00;98535.33;1725333;82;20998;-70
2022/04/21 06:02:43;;;;;;;33.08;22.13;;;;;;;5.34;100.00;98535.83;1726842;81;21491;-72
2022/04/21 06:05:10;;;;;;;27.17;19.25;;;;;;;5.44;100.00;98536.97;1730661;82;21042;-70
2022/04/21 06:07:37;;;;;;;29.48;19.05;;;;;;;5.44;100.00;98536.97;1735102;82;21083;-70
2022/04/21 06:10:06;;;;;;;26.82;18.27;;;;;;;5.48;100.00;98534.69;1727383;82;20982;-70
2022/04/21 06:12:36;;;;;;;24.07;17.12;;;;;;;5.53;100.00;98536.48;1732782;82;21014;-67
2022/04/21 06:15:05;;;;;;;25.27;17.27;;;;;;;5.60;100.00;98538.23;1732640;82;21050;-67
2022/04/21 06:17:31;;;;;;;22.65;16.27;;;;;;;5.65;100.00;98534.03;1737058;82;20979;-67
2022/04/21 06:20:00;;;;;;;22.10;16.45;;;;;;;5.73;100.00;98538.75;1736577;82;21105;-67
2022/04/21 06:22:27;;;;;;;27.52;17.25;;;;;;;5.73;100.00;98538.75;1721146;82;21026;-66
2022/04/21 06:24:55;;;;;;;23.77;15.40;;;;;;;5.74;100.00;98541.72;1731216;82;21046;-65
2022/04/21 06:27:24;;;;;;;22.75;15.70;;;;;;;5.74;100.00;98539.55;1734003;82;21046;-69
2022/04/21 06:29:53;;;;;;;23.47;16.20;;;;;;;5.72;100.00;98546.66;1733285;82;21441;-69
2022/04/21 06:32:20;;;;;;;22.95;15.75;;;;;;;5.68;100.00;98544.31;1738617;82;21112;-69
2022/04/21 06:34:46;;;;;;;21.10;15.35;;;;;;;5.68;100.00;98547.03;1731593;82;21038;-69
2022/04/21 06:37:14;;;;;;;24.50;16.45;;;;;;;5.68;100.00;98547.03;1737097;82;21062;-66
2022/04/21 06:39:42;;;;;;;22.50;15.72;;;;;;;5.69;100.00;98547.84;1729493;82;21014;-69
2022/04/21 06:42:08;;;;;;;28.95;18.00;;;;;;;5.69;100.00;98543.20;1711005;82;21030;-68
2022/04/21 06:50:09;;;;;;;25.88;15.93;;;;;;;5.78;100.00;98553.58;1733153;82;20978;-66
2022/04/21 06:52:37;;;;;;;24.90;17.50;;;;;;;5.72;100.00;98556.20;1733621;82;21070;-66
2022/04/21 06:55:06;;;;;;;21.30;15.60;;;;;;;5.68;100.00;98545.67;1739457;82;21109;-68
2022/04/21 06:57:35;;;;;;;21.90;15.80;;;;;;;5.69;100.00;98552.73;1737223;82;20998;-69
2022/04/21 07:00:05;;;;;;;22.77;15.95;;;;;;;5.69;100.00;98550.00;1719797;82;20979;-68
2022/04/21 07:02:38;;;;;;;21.12;15.13;;;;;;;5.71;100.00;98545.61;1722704;82;20939;-65
2022/04/21 07:05:08;;;;;;;23.32;14.83;;;;;;;5.75;100.00;98546.05;1726608;81;21060;-67
2022/04/21 07:07:36;;;;;;;;;;;;;;;5.76;100.00;98549.58;1722176;82;21068;-71
2022/04/21 07:10:06;;;;;;;25.97;15.32;;;;;;;5.74;100.00;98549.08;1733263;80;20092;-67
2022/04/21 07:12:34;;;;;;;22.48;16.10;;;;;;;5.71;100.00;98549.70;1725517;82;21001;-71
2022/04/21 07:15:04;;;;;;;25.55;16.00;;;;;;;5.77;100.00;98554.72;1719648;82;21513;-72
2022/04/21 07:17:33;;;;;;;21.77;13.58;;;;;;;5.78;100.00;98561.74;1730255;82;21051;-69
2022/04/21 07:20:04;;;;;;;25.55;16.00;;;;;;;5.79;100.00;98557.91;1730177;82;21585;-72
2022/04/21 07:22:32;;;;;;;25.90;16.40;;;;;;;5.80;100.00;98560.87;1702029;83;21348;-69
2022/04/21 07:25:03;;;;;;;24.32;16.40;;;;;;;5.84;100.00;98559.15;1723755;81;21028;-68
2022/04/21 07:27:31;;;;;;;27.50;16.97;;;;;;;5.90;100.00;98560.67;1735569;81;20994;-71
2022/04/21 07:30:02;;;;;;;28.35;17.60;;;;;;;5.95;100.00;98559.19;1732905;82;21011;-70
2022/04/21 07:32:29;;;;;;;23.95;15.80;;;;;;;5.95;100.00;98557.83;1732931;82;21062;-70
2022/04/21 07:34:56;;;;;;;26.68;16.37;;;;;;;5.93;100.00;98553.24;1734518;82;21266;-79
2022/04/21 07:37:23;;;;;;;23.62;14.93;;;;;;;5.99;100.00;98565.38;1731522;81;20989;-71
2022/04/21 07:39:52;;;;;;;23.73;14.63;;;;;;;6.02;100.00;98564.77;1722903;82;21042;-70
2022/04/21 07:42:18;;;;;;;23.50;14.70;;;;;;;6.05;100.00;98573.69;1739251;82;21009;-71
2022/04/21 07:44:47;;;;;;;21.23;15.08;;;;;;;6.07;100.00;98574.18;1728098;81;21017;-70
2022/04/21 07:47:13;;;;;;;19.80;13.45;;;;;;;6.09;100.00;98577.40;1736421;82;21808;-69
2022/04/21 07:49:45;;;;;;;21.20;14.58;;;;;;;6.15;100.00;98572.88;1730377;81;21561;-74
2022/04/21 07:55:17;;;;;;;24.40;14.05;;;;;;;6.21;100.00;98569.47;1717456;82;21008;-73
2022/04/21 07:57:46;;;;;;;17.45;12.60;;;;;;;6.23;100.00;98574.86;1733074;82;21016;-78
2022/04/21 08:00:17;;;;;;;19.65;12.45;;;;;;;6.24;100.00;98575.11;1711290;83;21896;-72
2022/04/21 08:02:47;;;;;;;20.45;14.43;;;;;;;6.21;100.00;98579.02;1711702;83;20967;-71
2022/04/21 08:05:17;;;;;;;20.90;14.18;;;;;;;6.21;100.00;98581.73;1722713;82;21067;-72
2022/04/21 08:07:45;;;;;;;20.60;13.83;;;;;;;6.18;100.00;98579.62;1733110;82;21167;-72
2022/04/21 08:10:13;;;;;;;20.20;13.68;;;;;;;6.21;100.00;98581.73;1735130;81;21062;-72
2022/04/21 08:12:51;;;;;;;18.30;12.70;;;;;;;6.24;100.00;98586.56;1739090;81;20935;-75
2022/04/21 08:15:30;;;;;;;18.75;12.58;;;;;;;6.26;100.00;98593.88;1737938;81;20895;-80
2022/04/21 08:18:02;;;;;;;18.07;12.13;;;;;;;6.25;100.00;98589.54;1726992;81;21045;-77
2022/04/21 08:20:31;;;;;;;18.12;12.68;;;;;;;6.24;100.00;98586.56;1731886;82;20955;-81
2022/04/21 08:23:00;;;;;;;19.15;12.37;;;;;;;6.26;100.00;98589.78;1737395;82;21013;-83
2022/04/21 08:33:44;;;;;;;16.15;11.57;;;;;;;6.31;100.00;98588.30;1735137;82;20988;-83
2022/04/21 08:36:11;;;;;;;18.32;12.03;;;;;;;6.36;100.00;98591.42;1738049;82;21561;-82
2022/04/21 08:38:39;;;;;;;19.07;12.58;;;;;;;6.38;100.00;98594.09;1735409;81;20959;-82
2022/04/21 08:41:11;;;;;;;19.02;13.50;;;;;;;6.41;100.00;98596.19;1735659;82;21000;-78
2022/04/21 08:43:39;;;;;;;21.02;12.40;;;;;;;6.45;100.00;98589.56;1735694;81;21004;-84
2022/04/21 08:46:06;;;;;;;20.50;13.18;;;;;;;6.48;100.00;98599.28;1685021;82;20961;-80
2022/04/21 08:48:34;;;;;;;22.22;13.83;;;;;;;6.52;100.00;98598.91;1710944;82;20974;-82
2022/04/21 08:51:02;;;;;;;18.48;11.95;;;;;;;6.55;100.00;98598.84;1735505;82;21823;-84
2022/04/21 08:53:28;;;;;;;19.12;12.73;;;;;;;6.60;100.00;98598.16;1735313;81;21521;-83
2022/04/21 08:55:57;;;;;;;19.40;11.50;;;;;;;6.68;100.00;98609.42;1736214;81;21009;-80
2022/04/21 08:58:23;;;;;;;16.93;11.60;;;;;;;6.72;100.00;98607.69;1731939;81;21053;-77
2022/04/21 09:00:54;;;;;;;15.10;10.95;;;;;;;6.73;100.00;98607.38;1732437;81;20978;-77
2022/04/21 09:03:22;;;;;;;13.98;10.15;;;;;;;6.74;100.00;98609.54;1737017;82;21169;-78
2022/04/21 09:05:51;;;;;;;13.53;10.00;;;;;;;6.76;100.00;98607.30;1739282;81;20915;-80
2022/04/21 09:08:31;;;;;;;14.25;9.70;;;;;;;6.81;100.00;98612.06;1731205;82;20948;-74
2022/04/21 09:11:09;;;;;;;14.70;9.80;;;;;;;6.83;100.00;98612.56;1736088;81;21050;-72
2022/04/21 09:13:39;;;;;;;14.00;10.25;;;;;;;6.81;100.00;98618.08;1694602;82;20898;-83
2022/04/21 09:16:12;;;;;;;21.07;12.20;;;;;;;6.77;100.00;98608.91;1737250;81;21832;-77
2022/04/21 09:18:42;;;;;;;17.67;12.07;;;;;;;6.74;100.00;98605.45;1734239;82;21437;-75
2022/04/21 09:21:17;;;;;;;20.85;11.50;;;;;;;6.78;100.00;98605.06;1736632;82;20919;-79
2022/04/21 09:23:47;;;;;;;15.45;10.75;;;;;;;6.81;100.00;98609.90;1730161;82;21004;-75
2022/04/21 09:26:15;;;;;;;15.28;9.85;;;;;;;6.81;100.00;98610.70;1735311;82;21047;-77
2022/04/21 09:28:55;;;;;;;13.80;9.20;;;;;;;6.82;100.00;98619.69;1734732;82;20975;-78
2022/04/21 09:31:24;;;;;;;17.37;10.43;;;;;;;6.86;100.00;98616.02;1691589;82;20924;-74
2022/04/21 09:33:52;;;;;;;13.50;9.53;;;;;;;6.91;100.00;98610.99;1735984;82;21096;-71
2022/04/21 09:36:19;;;;;;;15.50;9.70;;;;;;;6.95;100.00;98618.20;1710418;82;20911;-71
2022/04/21 09:38:59;;;;;;;15.40;10.43;;;;;;;6.95;100.00;98616.84;1684291;82;21403;-71
2022/04/21 09:41:30;;;;;;;14.93;10.18;;;;;;;6.94;100.00;98613.06;1736709;82;21095;-70
2022/04/21 09:46:07;;;;;;;14.40;10.35;;;;;;;6.94;100.00;98621.25;1733209;82;20912;-71
2022/04/21 09:46:38;;;;;;;18.32;11.78;;;;;;;6.90;100.00;98618.38;1728584;82;21111;-68
2022/04/21 09:49:06;;;;;;;25.15;15.38;;;;;;;6.87;100.00;98614.10;1730951;82;21002;-69
2022/04/21 09:51:34;;;;;;;22.20;12.13;;;;;;;6.85;100.00;98619.88;1730968;82;20966;-69
2022/04/21 09:54:03;;;;;;;15.03;9.65;;;;;;;6.86;100.00;98623.41;1729019;82;21214;-67
2022/04/21 09:56:40;;;;;;;15.95;10.35;;;;;;;6.83;100.00;98626.20;1735915;82;20992;-68
2022/04/21 09:59:12;;;;;;;15.90;9.60;;;;;;;6.81;100.00;98630.36;1730676;82;21158;-68
2022/04/21 10:01:42;;;;;;;11.65;8.80;;;;;;;6.78;100.00;98624.97;1737259;82;20914;-68
2022/04/21 10:04:11;;;;;;;15.00;9.98;;;;;;;6.79;100.00;98634.77;1690489;82;21429;-70
2022/04/21 10:06:41;;;;;;;12.88;8.60;;;;;;;6.78;100.00;98637.24;1739384;81;21860;-70
2022/04/21 10:09:09;;;;;;;17.90;10.18;;;;;;;6.77;100.00;98638.92;1708845;83;21458;-66
2022/04/21 10:11:42;;;;;;;12.93;9.38;;;;;;;6.70;100.00;98643.45;1714063;83;20895;-69
2022/04/21 10:14:15;;;;;;;12.78;8.35;;;;;;;6.64;100.00;98633.79;1711220;83;21446;-68
2022/04/21 10:16:43;;;;;;;10.25;7.35;;;;;;;6.60;100.00;98639.62;1712795;83;20966;-77
2022/04/21 10:19:14;;;;;;;13.43;8.00;;;;;;;6.54;100.00;98645.76;1711966;83;21470;-71
2022/04/21 10:21:53;;;;;;;10.38;6.70;;;;;;;6.51;100.00;98646.38;1712577;83;20936;-72
2022/04/21 10:24:26;;;;;;;9.05;6.42;;;;;;;6.52;100.00;98648.55;1710913;83;20982;-72
2022/04/21 10:26:53;;;;;;;113.25;66.87;;;;;;;6.52;100.00;98648.55;1713287;83;20994;-76
2022/04/21 10:29:23;;;;;;;18.67;12.88;;;;;;;6.53;100.00;98656.42;1712725;83;20986;-73
2022/04/21 10:32:01;;;;;;;12.23;9.03;;;;;;;6.53;100.00;98656.97;1715078;83;21076;-75
2022/04/21 10:34:41;;;;;;;15.72;8.38;;;;;;;6.52;100.00;98658.09;1711699;83;20891;-74
2022/04/21 10:37:20;;;;;;;11.12;8.13;;;;;;;6.51;100.00;98657.28;1713725;83;20888;-78
2022/04/21 10:40:14;;;;;;;15.48;12.20;;;;;;;6.53;100.00;98665.16;1712690;83;20923;-72
2022/04/21 10:42:57;;;;;;;;;;;;;;;6.54;100.00;98662.12;1716823;82;20943;-76
2022/04/21 10:45:31;;;;;;;11.30;7.55;;;;;;;6.52;100.00;98667.08;1715154;83;20085;-76
2022/04/21 10:48:12;;;;;;;12.07;8.00;;;;;;;6.48;100.00;98676.19;1718433;82;20974;-82
2022/04/21 10:50:42;;;;;;;22.93;14.87;;;;;;;6.46;100.00;98679.22;1717847;82;20887;-82
2022/04/21 10:58:47;;;;;;;18.27;13.20;;;;;;;6.29;100.00;98680.48;1716139;83;21931;-77
2022/04/21 11:01:28;;;;;;;14.47;9.48;;;;;;;6.26;100.00;98677.00;1711720;82;21098;-76
2022/04/21 11:04:08;;;;;;;11.43;8.88;;;;;;;6.24;100.00;98680.04;1735161;81;20983;-77
2022/04/21 11:06:51;;;;;;;14.67;9.87;;;;;;;6.21;100.00;98686.11;1734729;82;21419;-79
2022/04/21 11:09:46;;;;;;;13.30;9.28;;;;;;;6.21;100.00;98686.11;1699649;83;21611;-80
2022/04/21 11:12:19;;;;;;;11.45;7.85;;;;;;;6.20;100.00;98683.69;1672243;85;21140;-76
2022/04/21 11:14:47;;;;;;;11.65;8.28;;;;;;;6.15;100.00;98688.70;1692016;84;21112;-77
2022/04/21 11:17:15;;;;;;;9.48;7.28;;;;;;;6.15;100.00;98690.61;1679076;85;21505;-78
2022/04/21 11:19:53;;;;;;;11.35;8.23;;;;;;;6.15;100.00;98697.42;1675050;84;21529;-79
2022/04/21 11:22:40;;;;;;;13.10;8.70;;;;;;;6.15;100.00;98697.42;1655616;85;20959;-77
2022/04/21 11:25:08;;;;;;;13.43;8.13;;;;;;;6.13;100.00;98699.09;1696892;83;21005;-77
2022/04/21 11:27:42;;;;;;;12.82;8.35;;;;;;;6.12;100.00;98703.48;1693546;83;20928;-77
2022/04/21 11:30:14;;;;;;;11.05;8.38;;;;;;;6.10;100.00;98702.44;1698730;84;20843;-77
2022/04/21 11:32:51;;;;;;;12.37;7.87;;;;;;;6.12;100.00;98694.76;1702488;83;21099;-78
2022/04/21 11:35:24;;;;;;;11.25;7.78;;;;;;;6.15;100.00;98688.70;1678924;84;21467;-78
2022/04/21 11:37:59;;;;;;;12.33;8.70;;;;;;;6.17;100.00;98699.29;1699315;84;21107;-78
2022/04/21 11:40:36;;;;;;;12.40;9.20;;;;;;;6.12;100.00;98698.84;1672157;84;20899;-76
2022/04/21 11:43:17;;;;;;;13.05;9.00;;;;;;;6.07;100.00;98701.69;1701195;83;21038;-76
2022/04/21 11:45:59;;;;;;;13.65;9.85;;;;;;;6.01;100.00;98708.36;1701812;84;20967;-76
2022/04/21 11:48:43;;;;;;;15.70;11.20;;;;;;;5.95;100.00;98704.13;1733553;82;20904;-76
2022/04/21 11:51:09;;;;;;;14.00;10.03;;;;;;;5.93;100.00;98709.88;1737269;82;21427;-76
2022/04/21 11:53:40;;;;;;;15.75;11.22;;;;;;;5.90;100.00;98707.77;1735458;81;20975;-76
2022/04/21 11:56:07;;;;;;;16.77;11.40;;;;;;;5.91;100.00;98705.85;1729901;82;20967;-76
2022/04/21 11:58:46;;;;;;;14.40;11.25;;;;;;;5.92;100.00;98713.72;1738284;81;20987;-75
2022/04/21 12:06:56;;;;;;;14.70;10.68;;;;;;;6.05;100.00;98710.72;1717269;82;20952;-79
2022/04/21 12:09:28;;;;;;;15.08;9.35;;;;;;;6.05;100.00;98708.00;1721232;82;20981;-81
2022/04/21 12:11:59;;;;;;;16.10;10.97;;;;;;;6.08;100.00;98712.83;1726197;82;20915;-79
2022/04/21 12:14:28;;;;;;;14.15;10.05;;;;;;;6.11;100.00;98712.78;1718910;82;21050;-80
2022/04/21 12:17:04;;;;;;;9.68;7.47;;;;;;;6.17;100.00;98714.28;1725306;82;21053;-82
2022/04/21 12:19:46;;;;;;;10.93;8.10;;;;;;;6.19;100.00;98722.95;1721722;82;20945;-79
2022/04/21 12:22:15;;;;;;;12.98;8.60;;;;;;;6.25;100.00;98710.83;1723447;82;20993;-79
2022/04/21 12:24:46;;;;;;;10.38;7.80;;;;;;;6.33;100.00;98711.45;1730825;82;21034;-77
2022/04/21 12:27:18;;;;;;;13.75;9.38;;;;;;;6.50;100.00;98715.66;1715734;82;20999;-71
2022/04/21 12:30:07;;;;;;;10.57;7.50;;;;;;;6.63;100.00;98717.53;1715849;83;20980;-72